Country
Station

 

Weather  for  Vidsel  -  Sweden    Sweden

  
7 °C (45 °F)
    
 
 

Current METAR for Vidsel is :

ESPE 180950Z VRB02KT 9999 FEW022TCU BKN034 07/01 Q1009

 

This is a report for Vidsel - Sweden.
 
The report was made 25 minutes ago, at 09:50 UTC .
The wind was blowing at a speed of 1.0 meters per second (2.3 miles per hour) from variable directions.
 
The temperature was 7 °C (45 °F), with a dew-point at 1 °C (34 °F).
The atmospheric pressure was 1009 hPa (29.80 inHg).
The relative humidity was 65.6%.
 
There were a few towering cumulus clouds at a height of 671 meters (2200 feet) and broken clouds at a height of 1036 meters (3400 feet).
 
The overall visibility was greater than 10 kilometers (6.2 miles).
 

 
 
 
 

Country :   A   B   C   D   E   F   G   H   I   J   K   L   M   N   O   P   Q   R   S   T   U   V   W   Y   Z

 

Site Info  |  Disclaimer  |  Credits  |  Privacy
Contact us  |  Add to favorites
© 2013-2019 METARs - All rights reserved